»·PEaware :: N51EW KGYR-KPRC

N51EW :: KGYR-KPRC

FLIGHT INFORMATION

Flight Status: Arrived
Operator: Privately registered:
United States
More flights under this callsign
Pilot: Raphael S. (13144)
Aircraft: CESSNA 310
(C310)
More flights by this aircraft type
Origin: KGYR Phoenix Goodyear
United States
Destination: KPRC Love
United States
More flights between these airports :: More routes between these airports
Route: PXR V105 DRK
File this flight plan on PilotEdge
Remarks:
Altitude:
(Current/Filed)
10,000ft
Speed:
(Current/Filed)
170kts
Departed: 20-Apr-23 06:07 PM
Arrived: 20-Apr-23 06:48 PM
Distance/Time
Traveled:
73nm/0:41
Distance/Time
To Go:
Arrived

Flight Plot

Page will automatically refresh every two minutes.

Flight plan parsing failed; only flown route is shown


Map Options




Map Legend


Flown Route
Filed Route
Departure Airport
Arrival Airport
Navaid (VOR, NDB)
Fix

Horizontal Profiles

Position Reports

Time Latitude Longitude Heading Altitude Ground
Speed
20-Apr-23 17:39 33.431055 -112.366174 284 971ft 0kts
20-Apr-23 17:40 33.431055 -112.366174 284 971ft 0kts
20-Apr-23 17:41 33.431055 -112.366174 284 971ft 0kts
20-Apr-23 17:42 33.431055 -112.366174 284 971ft 0kts
20-Apr-23 17:43 33.431055 -112.366174 284 971ft 0kts
20-Apr-23 17:44 33.431055 -112.366174 284 971ft 0kts
20-Apr-23 17:46 33.431055 -112.366174 284 971ft 0kts
20-Apr-23 17:47 33.431055 -112.366174 284 971ft 0kts
20-Apr-23 17:48 33.431055 -112.366174 284 971ft 0kts
20-Apr-23 17:49 33.431055 -112.366174 284 971ft 0kts
20-Apr-23 17:50 33.431055 -112.366174 284 971ft 0kts
20-Apr-23 17:51 33.431055 -112.366174 284 971ft 0kts
20-Apr-23 17:52 33.431055 -112.366174 284 971ft 0kts
20-Apr-23 17:53 33.431055 -112.366174 284 971ft 0kts
20-Apr-23 17:54 33.431055 -112.366174 284 971ft 0kts
20-Apr-23 17:55 33.431055 -112.366174 284 971ft 0kts
20-Apr-23 17:56 33.431055 -112.366174 284 971ft 0kts
20-Apr-23 17:57 33.431055 -112.366174 284 971ft 0kts
20-Apr-23 17:58 33.431055 -112.366174 284 971ft 0kts
20-Apr-23 17:59 33.431055 -112.366174 284 971ft 0kts
20-Apr-23 18:00 33.431082 -112.366282 299 967ft 2kts
20-Apr-23 18:01 33.432579 -112.365463 305 981ft 0kts
20-Apr-23 18:02 33.432579 -112.365463 305 981ft 0kts
20-Apr-23 18:03 33.432579 -112.365463 305 981ft 0kts
20-Apr-23 18:04 33.432590 -112.365480 305 980ft 1kts
20-Apr-23 18:05 33.432630 -112.365547 305 976ft 0kts
20-Apr-23 18:06 33.432967 -112.366118 291 977ft 8kts
20-Apr-23 18:07 33.426993 -112.371904 219 988ft 98kts
20-Apr-23 18:08 33.402360 -112.394601 221 1940ft 113kts
20-Apr-23 18:09 33.384016 -112.385777 69 2945ft 125kts
20-Apr-23 18:09 33.392436 -112.352555 86 3661ft 129kts
20-Apr-23 18:11 33.391734 -112.300145 90 4580ft 152kts
20-Apr-23 18:12 33.399513 -112.247900 72 5266ft 167kts
20-Apr-23 18:13 33.406842 -112.194322 77 6195ft 158kts
20-Apr-23 18:14 33.412814 -112.143410 77 7167ft 150kts
20-Apr-23 18:14 33.417578 -112.102926 76 7978ft 144kts
20-Apr-23 18:15 33.423247 -112.054485 76 8658ft 155kts
20-Apr-23 18:16 33.429789 -112.001826 62 9154ft 159kts
20-Apr-23 18:18 33.473869 -111.997308 340 9761ft 146kts
20-Apr-23 18:19 33.511758 -112.018119 334 9989ft 156kts
20-Apr-23 18:19 33.544669 -112.038135 334 9995ft 162kts
20-Apr-23 18:20 33.585793 -112.063230 334 10014ft 168kts
20-Apr-23 18:21 33.627907 -112.088931 334 10021ft 171kts
20-Apr-23 18:22 33.670459 -112.114936 334 10022ft 172kts
20-Apr-23 18:24 33.720268 -112.145407 333 10021ft 173kts
20-Apr-23 18:24 33.756437 -112.167578 333 10016ft 175kts
20-Apr-23 18:25 33.799985 -112.194291 333 10010ft 176kts
20-Apr-23 18:26 33.843736 -112.221139 333 10008ft 176kts
20-Apr-23 18:27 33.888680 -112.248777 334 9829ft 182kts
20-Apr-23 18:28 33.933721 -112.276494 334 9819ft 181kts
20-Apr-23 18:29 33.978104 -112.303826 334 9816ft 178kts
20-Apr-23 18:30 34.021999 -112.330912 334 9821ft 175kts
20-Apr-23 18:31 34.065377 -112.357690 334 9836ft 175kts
20-Apr-23 18:32 34.109041 -112.384702 334 9848ft 177kts
20-Apr-23 18:33 34.153003 -112.411907 334 9850ft 177kts
20-Apr-23 18:34 34.196500 -112.438881 334 9858ft 173kts
20-Apr-23 18:35 34.239733 -112.465682 334 9865ft 175kts
20-Apr-23 18:36 34.283385 -112.492245 344 9876ft 175kts
20-Apr-23 18:37 34.331460 -112.495986 2 9893ft 173kts
20-Apr-23 18:38 34.376549 -112.494077 1 9561ft 146kts
20-Apr-23 18:39 34.415169 -112.492456 1 8737ft 141kts
20-Apr-23 18:40 34.455511 -112.490757 1 7812ft 149kts
20-Apr-23 18:41 34.496645 -112.489024 0 6836ft 145kts
20-Apr-23 18:42 34.531598 -112.480370 7 6734ft 114kts
20-Apr-23 18:43 34.562829 -112.474265 11 6700ft 117kts
20-Apr-23 18:44 34.593254 -112.463554 11 6682ft 113kts
20-Apr-23 18:45 34.621231 -112.448657 21 6084ft 108kts
20-Apr-23 18:46 34.647648 -112.426711 35 5028ft 106kts
20-Apr-23 18:47 34.654652 -112.419147 56 5001ft 18kts
20-Apr-23 18:48 34.652358 -112.420037 220 5010ft 18kts
20-Apr-23 18:49 34.648985 -112.423568 226 5025ft 16kts
20-Apr-23 18:50 34.647281 -112.425146 157 5024ft 11kts
20-Apr-23 18:51 34.646445 -112.424665 165 5025ft 0kts
20-Apr-23 18:52 34.646445 -112.424665 165 5025ft 0kts

Navigation Log

Ident Type
Flight plan parsing failed, navigation log unavailable